Nord Nanami — 3EWR2 — position and weather

sailwx.info

Track history (hours):
 
Tides and Currents Weather Stations Pressure Air Temp Water Temp Dewpoint Dewpoint Depression Visibility Wind Speed Wind Dir Waves Ship Positions

Nord Nanami

Last reported at 2017-Jan-21 11:16 UTC. Time now 2017-Jan-25 01:23 UTC.
Position S 34°55' W 057°18'.

Length 180 m; draft 10.4 m.

Type: Cargo ship. MMSI: 373694000.

Date/timePositionNaut miles runAvg speedWind from/ knotsBaromVisibWave heightAir tempDewpointWater temp
2017-Jan-21 11:16S 34°55' W 057°18'912.1
2017-Jan-21 10:33S 34°50' W 057°26'1212.0
2017-Jan-21 09:32S 34°45' W 057°39'1110.7
2017-Jan-21 08:33S 34°43' W 057°52'0 0.5
2017-Jan-21 07:32S 34°44' W 057°52'0 0.1
2017-Jan-21 06:32S 34°44' W 057°52'0 0.1
2017-Jan-21 05:31S 34°44' W 057°52'0 0.0
2017-Jan-21 04:32S 34°44' W 057°52'0 0.0
2017-Jan-21 03:31S 34°44' W 057°52'0 0.0
2017-Jan-21 02:32S 34°44' W 057°52'0 0.0
2017-Jan-21 01:31S 34°44' W 057°52'0 0.1
2017-Jan-21 00:31S 34°44' W 057°52'1 1.1
2017-Jan-20 23:33S 34°43' W 057°52'1010.0
2017-Jan-20 22:34S 34°39' W 058°04'1110.6
2017-Jan-20 21:34S 34°35' W 058°16'1110.8
2017-Jan-20 20:33S 34°27' W 058°24'77 8.3
2017-Jan-20 11:16S 33°39' W 059°38'  
2017-Jan-17 03:21S 34°20' W 058°01'1012.2
2017-Jan-17 02:33S 34°29' W 057°57'1212.1
2017-Jan-17 01:33S 34°41' W 057°56'9 9.6
2017-Jan-17 00:33S 34°45' W 057°46'138 3.5
2017-Jan-15 09:33S 35°03' W 054°59'  
Track history (hours):
 
Tides and Currents Weather Stations Pressure Air Temp Water Temp Dewpoint Dewpoint Depression Visibility Wind Speed Wind Dir Waves Ship Positions

Nord Nanami

Last reported at 2017-Jan-21 11:16 UTC. Time now 2017-Jan-25 01:23 UTC.
Position S 34°55' W 057°18'.

Length 180 m; draft 10.4 m.

Type: Cargo ship. MMSI: 373694000.

Date/timePositionNaut miles runAvg speedWind from/ knotsBaromVisibWave heightAir tempDewpointWater temp
2017-Jan-21 11:16S 34°55' W 057°18'912.1
2017-Jan-21 10:33S 34°50' W 057°26'1212.0
2017-Jan-21 09:32S 34°45' W 057°39'1110.7
2017-Jan-21 08:33S 34°43' W 057°52'0 0.5
2017-Jan-21 07:32S 34°44' W 057°52'0 0.1
2017-Jan-21 06:32S 34°44' W 057°52'0 0.1
2017-Jan-21 05:31S 34°44' W 057°52'0 0.0
2017-Jan-21 04:32S 34°44' W 057°52'0 0.0
2017-Jan-21 03:31S 34°44' W 057°52'0 0.0
2017-Jan-21 02:32S 34°44' W 057°52'0 0.0
2017-Jan-21 01:31S 34°44' W 057°52'0 0.1
2017-Jan-21 00:31S 34°44' W 057°52'1 1.1
2017-Jan-20 23:33S 34°43' W 057°52'1010.0
2017-Jan-20 22:34S 34°39' W 058°04'1110.6
2017-Jan-20 21:34S 34°35' W 058°16'1110.8
2017-Jan-20 20:33S 34°27' W 058°24'77 8.3
2017-Jan-20 11:16S 33°39' W 059°38'  
2017-Jan-17 03:21S 34°20' W 058°01'1012.2
2017-Jan-17 02:33S 34°29' W 057°57'1212.1
2017-Jan-17 01:33S 34°41' W 057°56'9 9.6
2017-Jan-17 00:33S 34°45' W 057°46'138 3.5
2017-Jan-15 09:33S 35°03' W 054°59'  

Dump ship's entire track history